createdAt,value
2022-11-24T00:01:05.685Z,4.17
2022-11-24T00:03:54.481Z,6.80
2022-11-24T00:06:40.629Z,6.77
2022-11-24T00:09:26.977Z,5.87
2022-11-24T00:12:14.792Z,6.50
2022-11-24T00:15:01.202Z,6.90
2022-11-24T00:17:47.587Z,5.33
2022-11-24T00:20:33.828Z,7.67
2022-11-24T00:23:20.228Z,5.57
2022-11-24T00:26:07.966Z,5.20
2022-11-24T00:28:56.384Z,6.90
2022-11-24T00:31:43.004Z,6.97
2022-11-24T00:34:29.499Z,6.63
2022-11-24T00:37:15.516Z,6.10
2022-11-24T00:40:01.949Z,5.37
2022-11-24T00:42:48.306Z,4.87
2022-11-24T00:45:36.267Z,5.77
2022-11-24T00:48:22.987Z,5.37
2022-11-24T00:51:10.503Z,4.87
2022-11-24T00:53:57.499Z,4.87
2022-11-24T00:56:43.572Z,5.87
2022-11-24T00:59:30.107Z,4.43
2022-11-24T01:02:17.828Z,4.83
2022-11-24T01:05:04.145Z,4.63
2022-11-24T01:07:50.332Z,5.03
2022-11-24T01:10:36.621Z,4.03
2022-11-24T01:13:22.985Z,5.17
2022-11-24T01:16:14.624Z,4.90
2022-11-24T01:19:03.897Z,4.37
2022-11-24T01:21:50.572Z,3.23
2022-11-24T01:24:36.899Z,4.03
2022-11-24T01:27:23.306Z,4.03
2022-11-24T01:30:10.305Z,3.53
2022-11-24T01:32:56.341Z,3.63
2022-11-24T01:35:43.867Z,4.20
2022-11-24T01:38:30.139Z,5.27
2022-11-24T01:41:17.777Z,4.07
2022-11-24T01:44:18.617Z,4.67
2022-11-24T01:47:06.662Z,4.00
2022-11-24T01:49:54.810Z,4.63
2022-11-24T01:52:44.216Z,4.00
2022-11-24T01:55:32.944Z,3.60
2022-11-24T01:58:20.657Z,4.70
2022-11-24T02:01:06.952Z,3.60
2022-11-24T02:03:53.887Z,3.23
2022-11-24T02:06:41.166Z,3.80
2022-11-24T02:09:32.214Z,3.73
2022-11-24T02:12:18.595Z,4.03
2022-11-24T02:15:05.028Z,3.60
2022-11-24T02:17:51.175Z,4.67
2022-11-24T02:20:38.139Z,5.47
2022-11-24T02:23:25.446Z,5.40
2022-11-24T02:26:15.979Z,3.50
2022-11-24T02:29:04.023Z,5.47
2022-11-24T02:31:52.298Z,4.83
2022-11-24T02:34:38.404Z,5.27
2022-11-24T02:37:24.877Z,5.80
2022-11-24T02:40:11.732Z,6.73
2022-11-24T02:42:59.849Z,6.17
2022-11-24T02:45:47.765Z,6.37
2022-11-24T02:48:34.188Z,6.53
2022-11-24T02:51:20.710Z,6.33
2022-11-24T02:54:07.084Z,5.83
2022-11-24T02:56:53.296Z,4.27
2022-11-24T02:59:39.469Z,5.53
2022-11-24T03:02:27.121Z,5.23
2022-11-24T03:05:13.903Z,4.60
2022-11-24T03:08:00.288Z,5.37
2022-11-24T03:10:46.809Z,4.90
2022-11-24T03:13:32.799Z,5.47
2022-11-24T03:16:19.210Z,4.93
2022-11-24T03:19:06.936Z,6.03
2022-11-24T03:21:53.267Z,6.50
2022-11-24T03:24:39.690Z,4.77
2022-11-24T03:27:25.858Z,5.83
2022-11-24T03:30:12.848Z,4.63
2022-11-24T03:32:58.981Z,5.30
2022-11-24T03:35:46.930Z,6.53
2022-11-24T03:38:33.353Z,5.40
2022-11-24T03:41:19.462Z,6.30
2022-11-24T03:44:05.890Z,6.73
2022-11-24T03:46:53.056Z,4.50
2022-11-24T03:49:39.153Z,6.37
2022-11-24T03:52:27.249Z,4.30
2022-11-24T03:55:13.672Z,6.20
2022-11-24T03:58:00.124Z,5.77
2022-11-24T04:00:46.626Z,5.67
2022-11-24T04:03:32.704Z,5.63
2022-11-24T04:06:19.003Z,7.23
2022-11-24T04:09:07.044Z,6.10
2022-11-24T04:12:13.172Z,4.83
2022-11-24T04:14:59.580Z,8.13
2022-11-24T04:17:45.760Z,5.47
2022-11-24T04:20:32.132Z,5.47
2022-11-24T04:23:18.221Z,6.17
2022-11-24T04:26:06.032Z,5.53
2022-11-24T04:28:52.574Z,5.50
2022-11-24T04:31:38.689Z,5.03
2022-11-24T04:34:25.060Z,5.07
2022-11-24T04:37:11.934Z,17.90
2022-11-24T04:39:57.993Z,8.67
2022-11-24T04:42:52.877Z,4.10
2022-11-24T04:45:38.967Z,4.63
2022-11-24T04:48:25.096Z,4.23
2022-11-24T04:51:11.598Z,4.63
2022-11-24T04:53:57.940Z,4.70
2022-11-24T04:56:44.747Z,4.07
2022-11-24T04:59:32.223Z,4.23
2022-11-24T05:02:18.585Z,5.87
2022-11-24T05:05:04.867Z,6.47
2022-11-24T05:07:51.048Z,4.13
2022-11-24T05:10:39.597Z,5.13
2022-11-24T05:13:26.533Z,4.00
2022-11-24T05:16:14.203Z,6.20
2022-11-24T05:19:00.813Z,5.27
2022-11-24T05:21:46.962Z,5.20
2022-11-24T05:24:33.342Z,6.17
2022-11-24T05:27:19.937Z,5.37
2022-11-24T05:30:07.280Z,4.70
2022-11-24T05:32:55.080Z,4.77
2022-11-24T05:35:41.545Z,5.57
2022-11-24T05:38:27.930Z,3.50
2022-11-24T05:41:14.213Z,4.77
2022-11-24T05:44:00.306Z,6.23
2022-11-24T05:46:46.711Z,5.00
2022-11-24T05:49:34.685Z,5.10
2022-11-24T05:52:21.106Z,3.93
2022-11-24T05:55:07.883Z,4.83
2022-11-24T05:57:58.887Z,4.43
2022-11-24T06:00:45.376Z,4.83
2022-11-24T06:03:31.481Z,4.03
2022-11-24T06:06:19.183Z,4.17
2022-11-24T06:09:06.123Z,5.80
2022-11-24T06:11:52.410Z,2.87
2022-11-24T06:14:38.568Z,3.80
2022-11-24T06:17:25.431Z,3.67
2022-11-24T06:20:12.465Z,3.83
2022-11-24T06:23:00.397Z,3.93
2022-11-24T06:25:51.397Z,3.57
2022-11-24T06:28:37.960Z,5.50
2022-11-24T06:31:23.999Z,5.47
2022-11-24T06:34:11.743Z,5.57
2022-11-24T06:36:58.235Z,5.47
2022-11-24T06:39:45.733Z,4.27
2022-11-24T06:42:32.221Z,6.20
2022-11-24T06:45:18.431Z,9.57
2022-11-24T06:48:05.044Z,6.73
2022-11-24T06:50:51.587Z,4.50
2022-11-24T06:53:38.936Z,5.93
2022-11-24T06:56:26.899Z,4.07
2022-11-24T06:59:16.869Z,3.30
2022-11-24T07:02:02.916Z,3.27
2022-11-24T07:04:49.503Z,2.93
2022-11-24T07:07:35.758Z,2.57
2022-11-24T07:10:22.491Z,2.77
2022-11-24T07:13:10.656Z,3.13
2022-11-24T07:15:56.933Z,2.87
2022-11-24T07:18:43.646Z,2.83
2022-11-24T07:21:30.814Z,2.80
2022-11-24T07:24:17.462Z,2.47
2022-11-24T07:27:03.682Z,3.37
2022-11-24T07:29:51.606Z,2.87
2022-11-24T07:32:38.282Z,2.20
2022-11-24T07:35:24.756Z,3.43
2022-11-24T07:38:11.250Z,3.50
2022-11-24T07:41:00.291Z,3.07
2022-11-24T07:43:47.021Z,3.33
2022-11-24T07:46:34.795Z,2.53
2022-11-24T07:49:21.189Z,2.33
2022-11-24T07:52:08.689Z,2.67
2022-11-24T07:54:55.127Z,2.23
2022-11-24T07:57:41.827Z,3.23
2022-11-24T08:00:28.415Z,2.63
2022-11-24T08:03:16.083Z,2.57
2022-11-24T08:09:08.485Z,3.10
2022-11-24T08:11:54.745Z,5.23
2022-11-24T08:14:41.268Z,3.50
2022-11-24T08:17:29.333Z,3.90
2022-11-24T08:20:16.971Z,3.43
2022-11-24T08:23:03.310Z,3.43
2022-11-24T08:25:54.169Z,2.83
2022-11-24T08:28:43.384Z,2.63
2022-11-24T08:31:33.596Z,3.53
2022-11-24T08:34:20.269Z,3.67
2022-11-24T08:37:08.249Z,3.43
2022-11-24T08:39:54.580Z,2.50
2022-11-24T08:42:40.964Z,2.73
2022-11-24T08:45:30.464Z,4.07
2022-11-24T08:48:17.079Z,2.63
2022-11-24T08:51:07.908Z,2.87
2022-11-24T08:53:57.046Z,2.67
2022-11-24T08:56:43.621Z,3.73
2022-11-24T08:59:30.148Z,3.20
2022-11-24T09:02:16.596Z,2.37
2022-11-24T09:05:03.162Z,3.23
2022-11-24T09:07:49.614Z,3.13
2022-11-24T09:10:37.623Z,3.00
2022-11-24T09:13:23.833Z,3.23
2022-11-24T09:16:10.859Z,3.50
2022-11-24T09:19:00.731Z,3.47
2022-11-24T09:21:47.000Z,3.77
2022-11-24T09:24:33.345Z,2.97
2022-11-24T09:27:21.006Z,3.27
2022-11-24T09:30:08.424Z,4.57
2022-11-24T09:32:56.545Z,2.00
2022-11-24T09:35:42.958Z,3.23
2022-11-24T09:38:29.724Z,2.30
2022-11-24T09:41:22.705Z,2.70
2022-11-24T09:44:15.055Z,3.73
2022-11-24T09:47:05.410Z,2.90
2022-11-24T09:49:54.543Z,2.50
2022-11-24T09:52:41.919Z,2.97
2022-11-24T09:55:41.586Z,3.20
2022-11-24T09:58:40.001Z,3.00
2022-11-24T10:01:29.910Z,4.00
2022-11-24T10:04:19.564Z,3.83
2022-11-24T10:07:09.083Z,4.97
2022-11-24T10:10:00.795Z,3.57
2022-11-24T10:12:51.047Z,3.93
2022-11-24T10:15:42.612Z,3.47
2022-11-24T10:18:37.319Z,4.07
2022-11-24T10:21:38.460Z,3.40
2022-11-24T10:24:40.081Z,2.17
2022-11-24T10:27:28.349Z,4.33
2022-11-24T10:30:16.846Z,3.73
2022-11-24T10:33:07.406Z,3.47
2022-11-24T10:35:57.096Z,3.70
2022-11-24T10:38:45.391Z,3.90
2022-11-24T10:41:36.857Z,4.57
2022-11-24T10:44:23.354Z,3.20
2022-11-24T10:47:16.969Z,3.03
2022-11-24T10:50:06.483Z,2.93
2022-11-24T10:52:59.905Z,4.27
2022-11-24T10:55:59.731Z,3.27
2022-11-24T10:58:45.946Z,4.53
2022-11-24T11:01:34.022Z,3.57
2022-11-24T11:04:21.516Z,3.90
2022-11-24T11:07:16.568Z,3.93
2022-11-24T11:10:20.652Z,3.93
2022-11-24T11:13:21.482Z,3.87
2022-11-24T11:16:20.247Z,6.77
2022-11-24T11:19:26.014Z,5.73
2022-11-24T11:22:15.813Z,5.30
2022-11-24T11:25:08.063Z,5.80
2022-11-24T11:28:16.512Z,6.40
2022-11-24T11:31:22.230Z,5.17
2022-11-24T11:34:35.123Z,6.77
2022-11-24T11:37:22.254Z,5.00
2022-11-24T11:40:16.111Z,5.87
2022-11-24T11:43:05.917Z,8.27
2022-11-24T11:45:58.658Z,5.80
2022-11-24T11:48:46.887Z,5.40
2022-11-24T11:51:45.912Z,5.33
2022-11-24T11:54:39.405Z,7.03
2022-11-24T11:57:29.885Z,9.50
2022-11-24T12:00:19.411Z,5.47
2022-11-24T12:03:29.015Z,3.80
2022-11-24T12:06:21.778Z,5.07
2022-11-24T12:09:20.286Z,4.50
2022-11-24T12:12:14.309Z,3.93
2022-11-24T12:15:11.047Z,5.20
2022-11-24T12:18:06.374Z,3.93
2022-11-24T12:20:57.942Z,3.13
2022-11-24T12:23:49.663Z,3.63
2022-11-24T12:26:39.171Z,3.90
2022-11-24T12:29:36.128Z,4.50
2022-11-24T12:32:34.983Z,3.83
2022-11-24T12:35:25.280Z,3.73
2022-11-24T12:38:22.308Z,3.67
2022-11-24T12:44:36.606Z,2.83
2022-11-24T12:47:27.393Z,4.60
2022-11-24T12:50:16.631Z,4.07
2022-11-24T12:53:09.158Z,3.37
2022-11-24T12:55:55.876Z,3.93
2022-11-24T12:58:46.177Z,2.87
2022-11-24T13:01:37.412Z,4.53
2022-11-24T13:04:32.482Z,2.97
2022-11-24T13:07:21.687Z,2.67
2022-11-24T13:13:51.431Z,2.40
2022-11-24T13:17:13.489Z,2.50
2022-11-24T13:20:14.582Z,2.43
2022-11-24T13:23:04.799Z,3.20
2022-11-24T13:26:15.808Z,2.37
2022-11-24T13:29:18.370Z,1.60
2022-11-24T13:32:41.702Z,1.70
2022-11-24T13:35:30.989Z,2.37
2022-11-24T13:38:34.829Z,1.90
2022-11-24T13:41:36.424Z,1.80
2022-11-24T13:44:25.660Z,2.33
2022-11-24T13:47:27.946Z,1.60
2022-11-24T13:50:16.457Z,2.10
2022-11-24T13:53:10.430Z,2.00
2022-11-24T13:55:59.319Z,2.50
2022-11-24T13:58:46.548Z,2.00
2022-11-24T14:01:33.861Z,2.00
2022-11-24T14:04:31.538Z,2.10
2022-11-24T14:07:18.958Z,2.07
2022-11-24T14:10:14.736Z,2.63
2022-11-24T14:13:21.962Z,2.87
2022-11-24T14:16:15.617Z,2.10
2022-11-24T14:19:10.083Z,2.07
2022-11-24T14:21:56.717Z,2.97
2022-11-24T14:24:45.479Z,2.87
2022-11-24T14:27:35.294Z,2.17
2022-11-24T14:30:22.647Z,2.93
2022-11-24T14:33:12.301Z,2.57
2022-11-24T14:35:58.470Z,4.83
2022-11-24T14:38:44.893Z,2.33
2022-11-24T14:41:31.198Z,3.43
2022-11-24T14:44:21.697Z,3.07
2022-11-24T14:47:09.124Z,3.10
2022-11-24T14:49:55.737Z,4.37
2022-11-24T14:52:46.613Z,3.33
2022-11-24T14:55:35.327Z,3.33
2022-11-24T14:58:22.194Z,2.97
2022-11-24T15:01:11.091Z,3.67
2022-11-24T15:04:17.890Z,3.10
2022-11-24T15:07:15.148Z,3.33
2022-11-24T15:10:02.415Z,3.73
2022-11-24T15:12:53.451Z,3.30
2022-11-24T15:15:40.193Z,4.07
2022-11-24T15:18:30.266Z,3.47
2022-11-24T15:21:19.567Z,3.70
2022-11-24T15:24:07.974Z,3.23
2022-11-24T15:26:59.843Z,7.50
2022-11-24T15:29:46.080Z,5.37
2022-11-24T15:32:32.442Z,3.67
2022-11-24T15:35:20.137Z,4.57
2022-11-24T15:38:06.376Z,6.27
2022-11-24T15:40:53.648Z,6.70
2022-11-24T15:43:40.504Z,3.63
2022-11-24T15:46:27.880Z,4.00
2022-11-24T15:49:14.521Z,4.30
2022-11-24T15:52:02.238Z,3.90
2022-11-24T15:54:49.028Z,4.23
2022-11-24T15:57:35.428Z,3.80
2022-11-24T16:00:22.414Z,4.20
2022-11-24T16:03:38.737Z,3.10
2022-11-24T16:06:23.374Z,4.57
2022-11-24T16:09:15.687Z,4.20
2022-11-24T16:12:03.856Z,4.03
2022-11-24T16:14:50.509Z,3.90
2022-11-24T16:17:36.908Z,4.07
2022-11-24T16:20:23.460Z,4.07
2022-11-24T16:23:09.604Z,3.17
2022-11-24T16:25:57.238Z,4.93
2022-11-24T16:28:45.299Z,4.10
2022-11-24T16:31:31.477Z,4.90
2022-11-24T16:34:17.722Z,4.00
2022-11-24T16:37:04.228Z,5.40
2022-11-24T16:39:50.913Z,4.83
2022-11-24T16:42:38.296Z,5.47
2022-11-24T16:45:24.967Z,4.27
2022-11-24T16:48:11.276Z,4.17
2022-11-24T16:50:57.584Z,4.47
2022-11-24T16:53:44.887Z,4.87
2022-11-24T16:56:32.042Z,5.63
2022-11-24T16:59:20.235Z,6.37
2022-11-24T17:02:07.321Z,4.70
2022-11-24T17:04:53.523Z,4.83
2022-11-24T17:07:39.801Z,5.00
2022-11-24T17:10:26.474Z,6.50
2022-11-24T17:13:12.876Z,6.23
2022-11-24T17:16:03.558Z,4.37
2022-11-24T17:18:50.434Z,4.10
2022-11-24T17:21:36.828Z,3.70
2022-11-24T17:24:23.314Z,6.27
2022-11-24T17:27:09.931Z,4.40
2022-11-24T17:29:56.429Z,4.57
2022-11-24T17:32:44.032Z,5.30
2022-11-24T17:35:30.197Z,6.37
2022-11-24T17:38:16.521Z,4.60
2022-11-24T17:41:02.828Z,4.57
2022-11-24T17:43:49.648Z,5.93
2022-11-24T17:46:37.188Z,5.50
2022-11-24T17:49:25.114Z,4.23
2022-11-24T17:52:12.784Z,5.80
2022-11-24T17:54:59.796Z,4.40
2022-11-24T17:57:46.152Z,3.37
2022-11-24T18:00:32.638Z,3.43
2022-11-24T18:03:18.807Z,4.20
2022-11-24T18:06:07.716Z,10.40
2022-11-24T18:08:55.155Z,9.63
2022-11-24T18:11:41.651Z,9.40
2022-11-24T18:14:27.983Z,6.87
2022-11-24T18:17:14.573Z,6.03
2022-11-24T18:20:00.721Z,7.57
2022-11-24T18:25:55.154Z,10.80
2022-11-24T18:28:41.587Z,9.83
2022-11-24T18:31:29.426Z,8.57
2022-11-24T18:34:16.203Z,9.73
2022-11-24T18:37:02.514Z,9.43
2022-11-24T18:39:50.550Z,6.40
2022-11-24T18:42:37.296Z,7.07
2022-11-24T18:45:23.815Z,9.37
2022-11-24T18:48:10.284Z,9.33
2022-11-24T18:50:57.391Z,7.90
2022-11-24T18:53:46.941Z,7.00
2022-11-24T18:56:34.459Z,7.13
2022-11-24T18:59:21.025Z,5.13
2022-11-24T19:02:07.201Z,4.37
2022-11-24T19:04:53.715Z,5.30
2022-11-24T19:07:40.190Z,4.43
2022-11-24T19:10:26.768Z,4.17
2022-11-24T19:13:14.834Z,4.30
2022-11-24T19:16:01.447Z,3.37
2022-11-24T19:18:53.603Z,3.37
2022-11-24T19:21:41.890Z,3.90
2022-11-24T19:24:28.293Z,4.53
2022-11-24T19:27:15.632Z,5.20
2022-11-24T19:30:03.104Z,5.30
2022-11-24T19:32:49.602Z,5.43
2022-11-24T19:35:36.357Z,5.57
2022-11-24T19:38:25.634Z,6.50
2022-11-24T19:41:16.183Z,4.53
2022-11-24T19:44:02.796Z,6.37
2022-11-24T19:46:51.141Z,6.70
2022-11-24T19:49:37.641Z,8.03
2022-11-24T19:52:24.232Z,7.70
2022-11-24T19:55:10.630Z,6.53
2022-11-24T19:57:56.909Z,6.67
2022-11-24T20:00:43.247Z,6.10
2022-11-24T20:03:30.830Z,7.37
2022-11-24T20:06:17.463Z,6.33
2022-11-24T20:09:04.842Z,5.50
2022-11-24T20:11:51.474Z,5.90
2022-11-24T20:14:37.796Z,5.30
2022-11-24T20:17:23.885Z,5.47
2022-11-24T20:20:11.887Z,5.77
2022-11-24T20:22:58.255Z,5.93
2022-11-24T20:25:44.344Z,6.87
2022-11-24T20:28:30.714Z,7.37
2022-11-24T20:31:19.665Z,9.03
2022-11-24T20:34:06.808Z,10.23
2022-11-24T20:36:54.219Z,7.67
2022-11-24T20:39:40.820Z,5.97
2022-11-24T20:42:27.251Z,4.60
2022-11-24T20:45:13.674Z,4.87
2022-11-24T20:48:00.212Z,4.83
2022-11-24T20:50:51.145Z,5.37
2022-11-24T20:53:39.642Z,5.80
2022-11-24T20:56:27.445Z,6.83
2022-11-24T20:59:14.471Z,6.57
2022-11-24T21:02:00.818Z,6.87
2022-11-24T21:04:49.190Z,6.93
2022-11-24T21:07:35.575Z,7.90
2022-11-24T21:10:23.408Z,6.53
2022-11-24T21:13:09.835Z,6.57
2022-11-24T21:15:56.430Z,9.03
2022-11-24T21:18:43.604Z,8.43
2022-11-24T21:21:34.166Z,5.60
2022-11-24T21:24:21.750Z,5.43
2022-11-24T21:27:09.402Z,5.57
2022-11-24T21:29:55.816Z,5.00
2022-11-24T21:32:42.044Z,4.23
2022-11-24T21:35:28.510Z,5.57
2022-11-24T21:38:15.227Z,4.90
2022-11-24T21:41:02.338Z,3.63
2022-11-24T21:43:50.092Z,3.53
2022-11-24T21:46:43.590Z,3.20
2022-11-24T21:49:32.068Z,3.50
2022-11-24T21:52:18.661Z,2.90
2022-11-24T21:55:05.009Z,3.20
2022-11-24T21:57:51.418Z,3.17
2022-11-24T22:00:39.051Z,2.97
2022-11-24T22:03:25.622Z,3.47
2022-11-24T22:06:12.212Z,3.67
2022-11-24T22:08:58.416Z,3.43
2022-11-24T22:11:45.142Z,4.07
2022-11-24T22:14:36.107Z,4.00
2022-11-24T22:17:26.856Z,3.57
2022-11-24T22:20:13.040Z,3.23
2022-11-24T22:22:59.425Z,3.73
2022-11-24T22:25:45.853Z,3.80
2022-11-24T22:28:33.253Z,3.27
2022-11-24T22:31:20.608Z,3.83
2022-11-24T22:34:08.654Z,2.33
2022-11-24T22:36:54.987Z,2.20
2022-11-24T22:39:41.132Z,2.13
2022-11-24T22:42:27.503Z,3.63
2022-11-24T22:45:13.870Z,2.37
2022-11-24T22:48:00.020Z,2.10
2022-11-24T22:50:47.760Z,1.73
2022-11-24T22:53:34.421Z,2.37
2022-11-24T22:56:21.562Z,2.13
2022-11-24T22:59:07.918Z,2.00
2022-11-24T23:01:54.472Z,2.13
2022-11-24T23:04:40.920Z,2.10
2022-11-24T23:07:28.923Z,1.50
2022-11-24T23:10:15.246Z,1.87
2022-11-24T23:13:01.850Z,1.50
2022-11-24T23:15:47.916Z,1.93
2022-11-24T23:18:34.236Z,1.83
2022-11-24T23:21:21.711Z,1.60
2022-11-24T23:24:11.036Z,2.03
2022-11-24T23:26:57.191Z,1.70
2022-11-24T23:29:43.562Z,1.93
2022-11-24T23:32:29.907Z,1.40
2022-11-24T23:35:15.989Z,1.30
2022-11-24T23:38:09.279Z,1.40
2022-11-24T23:40:57.882Z,1.50
2022-11-24T23:43:44.402Z,1.33
2022-11-24T23:46:30.826Z,1.10
2022-11-24T23:49:17.133Z,1.80
2022-11-24T23:52:03.608Z,1.27
2022-11-24T23:54:49.979Z,1.40
2022-11-24T23:57:37.634Z,1.27
